Terminal Aerodrome Forecast
Issued by NWS Charleston, WV

Home | Current Version | Previous Version | Text Only | Print | Product List | Glossary On
Versions: 1 2 3 4 5 6 7 8 9 10 11 12 13 14 15 16 17 18 19 20 21 22 23 24 25 26 27 28 29 30 31 32
523
FTUS41 KRLX 291803 AAA
TAFBKW
TAF AMD
KBKW 291803Z 2918/3018 30006KT P6SM BKN035
     FM292000 29004KT P6SM VCTS BKN035CB
     FM300100 00000KT P6SM BKN060
     FM301200 00000KT P6SM BKN025
     FM301300 00000KT P6SM BKN035
     FM301500 VRB03KT P6SM VCTS BKN035CB=

USA.gov is the U.S. government's official web portal to all federal, state and local government web resources and services.